Time;durP1;ratioP1;P1;durP2;ratioP2;P2;SDS_P1;SDS_P2;PMS_P1;PMS_P2;Temp;Humidity;BMP_temperature;BMP_pressure;BME280_temperature;BME280_humidity;BME280_pressure;Samples;Min_cycle;Max_cycle;Signal;HPM_P1;HPM_P2
2022/02/14 00:02:11;;;;;;;18.43;13.60;;;;;;;;;;4971244;28;20041;-65
2022/02/14 00:04:37;;;;;;;15.40;13.00;;;;;;;;;;4976602;28;20023;-65
2022/02/14 00:07:03;;;;;;;16.70;13.20;;;;;;;;;;4990880;28;20034;-65
2022/02/14 00:09:29;;;;;;;19.80;13.57;;;;;;;;;;4989521;28;20522;-65
2022/02/14 00:11:56;;;;;;;18.73;14.23;;;;;;;;;;4990556;28;20052;-65
2022/02/14 00:14:22;;;;;;;16.60;12.50;;;;;;;;;;4992034;28;20148;-65
2022/02/14 00:16:48;;;;;;;18.37;12.83;;;;;;;;;;4994031;28;20023;-65
2022/02/14 00:19:14;;;;;;;15.73;11.97;;;;;;;;;;4992856;28;20104;-65
2022/02/14 00:21:40;;;;;;;16.07;11.87;;;;;;;;;;4992937;28;20039;-65
2022/02/14 00:24:07;;;;;;;16.47;12.67;;;;;;;;;;4992072;28;20026;-65
2022/02/14 00:26:33;;;;;;;18.73;12.60;;;;;;;;;;4974411;28;20023;-65
2022/02/14 00:28:59;;;;;;;18.17;13.37;;;;;;;;;;4972954;28;20520;-65
2022/02/14 00:31:25;;;;;;;15.57;12.10;;;;;;;;;;4993268;28;20070;-65
2022/02/14 00:33:51;;;;;;;17.70;12.17;;;;;;;;;;4993441;28;20030;-66
2022/02/14 00:36:17;;;;;;;16.50;12.70;;;;;;;;;;4978904;28;20038;-65
2022/02/14 00:38:43;;;;;;;14.60;11.97;;;;;;;;;;4988511;28;20033;-66
2022/02/14 00:41:10;;;;;;;14.73;11.80;;;;;;;;;;4979244;28;20058;-65
2022/02/14 00:43:36;;;;;;;15.17;11.97;;;;;;;;;;4974522;28;20025;-65
2022/02/14 00:46:02;;;;;;;16.97;12.23;;;;;;;;;;4989831;28;20026;-65
2022/02/14 00:48:28;;;;;;;19.13;12.60;;;;;;;;;;4992260;28;20551;-65
2022/02/14 00:50:54;;;;;;;18.53;12.37;;;;;;;;;;4992298;28;20090;-65
2022/02/14 00:53:20;;;;;;;18.50;12.57;;;;;;;;;;4993765;28;20071;-65
2022/02/14 00:55:47;;;;;;;15.87;12.53;;;;;;;;;;4992073;28;20041;-65
2022/02/14 00:58:14;;;;;;;14.90;11.60;;;;;;;;;;4993401;28;20495;-65
2022/02/14 01:00:53;;;;;;;15.27;12.13;;;;;;;;;;4990931;28;20526;-65
2022/02/14 01:03:19;;;;;;;17.83;12.47;;;;;;;;;;4985153;28;20102;-65
2022/02/14 01:05:45;;;;;;;16.10;12.97;;;;;;;;;;4985041;28;20022;-65
2022/02/14 01:08:11;;;;;;;18.17;12.63;;;;;;;;;;4993259;28;20044;-65
2022/02/14 01:10:37;;;;;;;14.03;11.30;;;;;;;;;;4982788;28;20499;-65
2022/02/14 01:13:03;;;;;;;15.90;11.10;;;;;;;;;;4973499;28;20062;-65
2022/02/14 01:15:29;;;;;;;13.37;11.23;;;;;;;;;;4983631;28;20500;-65
2022/02/14 01:17:56;;;;;;;16.13;12.87;;;;;;;;;;4989846;28;20092;-66
2022/02/14 01:20:22;;;;;;;16.73;12.97;;;;;;;;;;4991931;28;20502;-65
2022/02/14 01:22:48;;;;;;;17.13;11.20;;;;;;;;;;4993203;28;20070;-65
2022/02/14 01:25:14;;;;;;;18.17;11.47;;;;;;;;;;4990711;28;20050;-65
2022/02/14 01:27:40;;;;;;;14.50;10.93;;;;;;;;;;4991724;28;20034;-65
2022/02/14 01:30:07;;;;;;;17.23;11.73;;;;;;;;;;4985169;28;20051;-65
2022/02/14 01:33:04;;;;;;;16.23;11.50;;;;;;;;;;4973454;28;20065;-65
2022/02/14 01:35:30;;;;;;;14.10;11.30;;;;;;;;;;4982330;28;20053;-65
2022/02/14 01:37:56;;;;;;;14.90;11.97;;;;;;;;;;4992837;28;20026;-66
2022/02/14 01:40:22;;;;;;;15.63;11.13;;;;;;;;;;4982864;28;20065;-65
2022/02/14 01:42:48;;;;;;;12.57;10.00;;;;;;;;;;4973221;28;20041;-65
2022/02/14 01:45:14;;;;;;;17.13;10.60;;;;;;;;;;4975116;28;20124;-66
2022/02/14 01:47:41;;;;;;;16.37;11.50;;;;;;;;;;4973482;28;20423;-65
2022/02/14 01:50:08;;;;;;;17.00;11.83;;;;;;;;;;4978673;28;20033;-65
2022/02/14 01:52:35;;;;;;;18.30;12.17;;;;;;;;;;4991318;28;20113;-65
2022/02/14 01:55:01;;;;;;;16.27;11.27;;;;;;;;;;4991382;28;20029;-65
2022/02/14 01:57:27;;;;;;;15.00;10.70;;;;;;;;;;4992538;28;20031;-65
2022/02/14 01:59:53;;;;;;;14.30;11.03;;;;;;;;;;4991267;28;20022;-65
2022/02/14 02:02:19;;;;;;;15.37;10.37;;;;;;;;;;4992430;28;20042;-65
2022/02/14 02:04:46;;;;;;;14.17;10.83;;;;;;;;;;4989980;28;20392;-65
2022/02/14 02:07:14;;;;;;;17.60;12.40;;;;;;;;;;4991180;28;20034;-66
2022/02/14 02:09:41;;;;;;;17.27;12.63;;;;;;;;;;4991193;28;20038;-65
2022/02/14 02:12:23;;;;;;;22.63;14.40;;;;;;;;;;4992611;28;20038;-65
2022/02/14 02:15:03;;;;;;;25.27;15.80;;;;;;;;;;4975693;28;20034;-65
2022/02/14 02:17:38;;;;;;;20.80;15.23;;;;;;;;;;4973715;28;20030;-65
2022/02/14 02:20:06;;;;;;;23.47;15.97;;;;;;;;;;4976764;28;20365;-65
2022/02/14 02:22:33;;;;;;;25.13;16.97;;;;;;;;;;4991992;28;20030;-65
2022/02/14 02:24:59;;;;;;;19.13;14.10;;;;;;;;;;4990916;28;20031;-65
2022/02/14 02:27:26;;;;;;;20.60;13.53;;;;;;;;;;4992174;28;20120;-65
2022/02/14 02:29:53;;;;;;;19.30;14.47;;;;;;;;;;4989486;28;20199;-66
2022/02/14 02:32:20;;;;;;;16.83;12.97;;;;;;;;;;4992016;28;20030;-66
2022/02/14 02:34:46;;;;;;;15.50;11.23;;;;;;;;;;4990874;28;20026;-65
2022/02/14 02:37:13;;;;;;;15.03;11.83;;;;;;;;;;4991110;28;20030;-66
2022/02/14 02:39:41;;;;;;;14.43;11.70;;;;;;;;;;4990612;28;20130;-66
2022/02/14 02:42:08;;;;;;;19.07;14.90;;;;;;;;;;4990289;28;20027;-65
2022/02/14 02:44:35;;;;;;;23.30;16.93;;;;;;;;;;4974292;28;20026;-65
2022/02/14 02:47:03;;;;;;;23.73;18.67;;;;;;;;;;4986918;28;20030;-66
2022/02/14 02:49:29;;;;;;;22.97;17.47;;;;;;;;;;4972343;28;20031;-65
2022/02/14 02:51:55;;;;;;;28.80;19.77;;;;;;;;;;4989889;28;20080;-65
2022/02/14 02:54:22;;;;;;;23.53;18.37;;;;;;;;;;4991711;28;20027;-65
2022/02/14 02:56:49;;;;;;;26.67;19.70;;;;;;;;;;4990581;28;20030;-65
2022/02/14 02:59:16;;;;;;;26.73;19.23;;;;;;;;;;4991696;28;20030;-65
2022/02/14 03:01:42;;;;;;;27.67;19.23;;;;;;;;;;4989272;28;20042;-65
2022/02/14 03:04:09;;;;;;;29.47;19.53;;;;;;;;;;4991646;28;20048;-65
2022/02/14 03:06:35;;;;;;;26.53;18.80;;;;;;;;;;4990314;28;20026;-65
2022/02/14 03:09:14;;;;;;;25.67;19.03;;;;;;;;;;4989546;28;20042;-65
2022/02/14 03:11:40;;;;;;;25.33;17.63;;;;;;;;;;4979115;28;20035;-66
2022/02/14 03:14:07;;;;;;;26.43;18.30;;;;;;;;;;4988968;28;20033;-65
2022/02/14 03:16:33;;;;;;;22.33;17.43;;;;;;;;;;4989914;28;20480;-65
2022/02/14 03:18:59;;;;;;;21.97;17.83;;;;;;;;;;4974713;28;20049;-65
2022/02/14 03:21:25;;;;;;;21.87;15.77;;;;;;;;;;4970845;28;20039;-65
2022/02/14 03:23:52;;;;;;;22.53;18.23;;;;;;;;;;4985222;28;20026;-65
2022/02/14 03:26:19;;;;;;;26.53;17.67;;;;;;;;;;4988371;28;20034;-65
2022/02/14 03:28:46;;;;;;;23.40;18.20;;;;;;;;;;4976555;28;20369;-65
2022/02/14 03:31:12;;;;;;;23.27;17.03;;;;;;;;;;4971534;28;20051;-65
2022/02/14 03:33:38;;;;;;;23.77;18.13;;;;;;;;;;4971593;28;20081;-65
2022/02/14 03:36:05;;;;;;;24.67;16.60;;;;;;;;;;4971656;28;20034;-65
2022/02/14 03:38:31;;;;;;;24.20;17.67;;;;;;;;;;4982721;28;20027;-65
2022/02/14 03:40:57;;;;;;;20.70;16.57;;;;;;;;;;4991133;28;20049;-65
2022/02/14 03:43:23;;;;;;;24.77;17.07;;;;;;;;;;4990180;28;20038;-65
2022/02/14 03:45:49;;;;;;;24.00;17.43;;;;;;;;;;4990817;28;20026;-65
2022/02/14 03:48:15;;;;;;;23.73;17.87;;;;;;;;;;4981156;28;20039;-65
2022/02/14 03:50:41;;;;;;;24.37;17.20;;;;;;;;;;4971511;28;20392;-66
2022/02/14 03:53:07;;;;;;;24.00;17.23;;;;;;;;;;4978010;28;20096;-65
2022/02/14 03:55:33;;;;;;;22.43;17.50;;;;;;;;;;4989938;28;20362;-65
2022/02/14 03:57:59;;;;;;;22.73;17.50;;;;;;;;;;4977916;28;20042;-65
2022/02/14 04:00:26;;;;;;;24.33;18.07;;;;;;;;;;4990946;28;20030;-65
2022/02/14 04:02:52;;;;;;;22.40;17.03;;;;;;;;;;4983530;28;20034;-65
2022/02/14 04:05:19;;;;;;;25.03;17.37;;;;;;;;;;4971334;28;20023;-65
2022/02/14 04:07:45;;;;;;;25.33;17.30;;;;;;;;;;4974206;28;20460;-65
2022/02/14 04:10:12;;;;;;;23.50;16.93;;;;;;;;;;4990663;28;20383;-65
2022/02/14 04:12:38;;;;;;;24.83;16.37;;;;;;;;;;4988647;28;20030;-65
2022/02/14 04:15:05;;;;;;;22.60;16.27;;;;;;;;;;4989293;28;20079;-65
2022/02/14 04:17:31;;;;;;;22.03;16.57;;;;;;;;;;4987549;28;20077;-65
2022/02/14 04:19:57;;;;;;;22.80;15.87;;;;;;;;;;4971064;28;20027;-66
2022/02/14 04:22:23;;;;;;;19.33;15.63;;;;;;;;;;4970936;28;20176;-66
2022/02/14 04:24:50;;;;;;;20.63;15.87;;;;;;;;;;4970955;28;20042;-65
2022/02/14 04:27:16;;;;;;;20.80;15.47;;;;;;;;;;4970387;28;20019;-66
2022/02/14 04:29:42;;;;;;;23.20;16.27;;;;;;;;;;4970780;28;20063;-65
2022/02/14 04:32:08;;;;;;;21.60;15.63;;;;;;;;;;4971094;28;20483;-65
2022/02/14 04:34:35;;;;;;;19.57;15.33;;;;;;;;;;4970733;28;20031;-65
2022/02/14 04:37:01;;;;;;;19.90;14.27;;;;;;;;;;4971063;28;20027;-65
2022/02/14 04:39:27;;;;;;;23.03;16.00;;;;;;;;;;4986360;28;20439;-65
2022/02/14 04:41:53;;;;;;;18.43;14.43;;;;;;;;;;4990178;28;20042;-65
2022/02/14 04:44:19;;;;;;;23.70;16.53;;;;;;;;;;4973519;28;20109;-65
2022/02/14 04:46:46;;;;;;;19.53;15.10;;;;;;;;;;4970892;28;20113;-65
2022/02/14 04:49:12;;;;;;;21.17;15.73;;;;;;;;;;4984179;28;20036;-66
2022/02/14 04:51:41;;;;;;;20.23;15.60;;;;;;;;;;4990204;28;20109;-65
2022/02/14 04:54:08;;;;;;;18.50;14.63;;;;;;;;;;4976807;28;20507;-66
2022/02/14 04:56:34;;;;;;;24.00;15.47;;;;;;;;;;4989268;28;20034;-65
2022/02/14 04:59:00;;;;;;;20.67;15.63;;;;;;;;;;4989819;28;20061;-66
2022/02/14 05:01:26;;;;;;;20.70;15.80;;;;;;;;;;4993529;28;20042;-66
2022/02/14 05:03:52;;;;;;;19.87;15.17;;;;;;;;;;4981111;28;20031;-66
2022/02/14 05:06:18;;;;;;;20.03;14.87;;;;;;;;;;4973857;28;20019;-66
2022/02/14 05:08:44;;;;;;;23.17;15.37;;;;;;;;;;4982677;28;20030;-65
2022/02/14 05:11:10;;;;;;;22.60;15.60;;;;;;;;;;4993339;28;20034;-65
2022/02/14 05:13:41;;;;;;;22.10;15.67;;;;;;;;;;4992604;28;20041;-65
2022/02/14 05:16:08;;;;;;;20.33;15.63;;;;;;;;;;4993274;28;20022;-65
2022/02/14 05:18:34;;;;;;;22.13;15.90;;;;;;;;;;4989190;28;20083;-66
2022/02/14 05:21:00;;;;;;;23.93;16.87;;;;;;;;;;4991557;28;20434;-65
2022/02/14 05:23:57;;;;;;;23.43;17.17;;;;;;;;;;4989176;28;20034;-65
2022/02/14 05:26:23;;;;;;;20.47;15.30;;;;;;;;;;4978540;28;20488;-65
2022/02/14 05:28:54;;;;;;;25.23;16.90;;;;;;;;;;4979498;28;20543;-65
2022/02/14 05:31:20;;;;;;;19.77;15.03;;;;;;;;;;4982799;28;20100;-65
2022/02/14 05:33:46;;;;;;;22.40;15.40;;;;;;;;;;4988609;28;20130;-65
2022/02/14 05:36:12;;;;;;;22.10;16.80;;;;;;;;;;4978650;28;20488;-65
2022/02/14 05:38:38;;;;;;;19.70;15.80;;;;;;;;;;4981428;28;20037;-65
2022/02/14 05:41:04;;;;;;;22.43;16.40;;;;;;;;;;4992462;28;20105;-65
2022/02/14 05:43:30;;;;;;;27.23;16.00;;;;;;;;;;4991802;28;20459;-65
2022/02/14 05:45:56;;;;;;;21.00;15.40;;;;;;;;;;4992642;28;20027;-65
2022/02/14 05:48:26;;;;;;;24.20;16.47;;;;;;;;;;4983449;28;20062;-65
2022/02/14 05:50:52;;;;;;;19.83;15.63;;;;;;;;;;4962205;28;20369;-65
2022/02/14 05:56:22;;;;;;;23.20;15.90;;;;;;;;;;4989523;28;20034;-65
2022/02/14 05:58:48;;;;;;;22.43;16.17;;;;;;;;;;4961947;28;20022;-65
2022/02/14 06:01:20;;;;;;;25.50;16.67;;;;;;;;;;4991008;28;20099;-65
2022/02/14 06:03:46;;;;;;;22.60;16.20;;;;;;;;;;4990316;28;20076;-65
2022/02/14 06:06:12;;;;;;;25.50;17.20;;;;;;;;;;4992302;28;20026;-65
2022/02/14 06:08:38;;;;;;;26.80;16.80;;;;;;;;;;4990589;28;20480;-65
2022/02/14 06:11:04;;;;;;;25.83;17.10;;;;;;;;;;4991039;28;20026;-65
2022/02/14 06:13:30;;;;;;;21.10;15.50;;;;;;;;;;4989560;28;20030;-65
2022/02/14 06:15:57;;;;;;;26.20;16.17;;;;;;;;;;4971594;28;20121;-65
2022/02/14 06:18:23;;;;;;;24.73;16.20;;;;;;;;;;4972774;28;20023;-65
2022/02/14 06:20:49;;;;;;;18.63;15.30;;;;;;;;;;4972676;28;20528;-65
2022/02/14 06:23:15;;;;;;;24.70;16.97;;;;;;;;;;4972440;28;20105;-65
2022/02/14 06:25:41;;;;;;;21.13;15.80;;;;;;;;;;4991758;28;20038;-65
2022/02/14 06:28:07;;;;;;;23.63;15.93;;;;;;;;;;4992235;28;20026;-65
2022/02/14 06:30:33;;;;;;;24.33;17.13;;;;;;;;;;4989706;28;20051;-65
2022/02/14 06:32:59;;;;;;;24.10;15.37;;;;;;;;;;4992049;28;20487;-65
2022/02/14 06:35:26;;;;;;;21.93;16.50;;;;;;;;;;4989237;28;20026;-65
2022/02/14 06:37:52;;;;;;;23.03;15.50;;;;;;;;;;4991988;28;20088;-65
2022/02/14 06:40:18;;;;;;;17.47;14.07;;;;;;;;;;4991130;28;20034;-65
2022/02/14 06:42:47;;;;;;;20.93;16.23;;;;;;;;;;4991928;28;20042;-65
2022/02/14 06:48:23;;;;;;;18.20;13.30;;;;;;;;;;4972364;28;20488;-65
2022/02/14 06:51:09;;;;;;;21.33;13.50;;;;;;;;;;4986916;28;20400;-65
2022/02/14 06:53:35;;;;;;;18.30;13.07;;;;;;;;;;4973134;28;20023;-65
2022/02/14 06:56:05;;;;;;;18.87;13.23;;;;;;;;;;4991648;28;20075;-65
2022/02/14 06:58:31;;;;;;;17.77;12.37;;;;;;;;;;4989839;28;20058;-65
2022/02/14 07:00:57;;;;;;;16.17;12.20;;;;;;;;;;4982219;28;20135;-65
2022/02/14 07:03:23;;;;;;;20.00;13.87;;;;;;;;;;4972200;28;20027;-65
2022/02/14 07:05:49;;;;;;;16.40;11.97;;;;;;;;;;4990578;28;20034;-65
2022/02/14 07:08:15;;;;;;;16.00;11.90;;;;;;;;;;4991468;28;20066;-66
2022/02/14 07:10:41;;;;;;;20.40;12.97;;;;;;;;;;4989487;28;20022;-65
2022/02/14 07:13:08;;;;;;;16.30;11.83;;;;;;;;;;4989317;28;20033;-66
2022/02/14 07:15:35;;;;;;;19.03;13.40;;;;;;;;;;4988766;28;20061;-66
2022/02/14 07:18:01;;;;;;;16.63;13.63;;;;;;;;;;4980375;28;20034;-65
2022/02/14 07:20:27;;;;;;;19.13;13.43;;;;;;;;;;4969994;28;20042;-65
2022/02/14 07:22:53;;;;;;;19.27;13.53;;;;;;;;;;4984552;28;20083;-65
2022/02/14 07:25:19;;;;;;;21.60;13.67;;;;;;;;;;4989322;28;20023;-65
2022/02/14 07:27:45;;;;;;;19.27;12.67;;;;;;;;;;4990039;28;20062;-65
2022/02/14 07:30:15;;;;;;;19.40;13.40;;;;;;;;;;4981229;28;20069;-66
2022/02/14 07:32:42;;;;;;;17.40;13.47;;;;;;;;;;4971404;28;20080;-66
2022/02/14 07:35:08;;;;;;;17.57;12.70;;;;;;;;;;4971655;28;20026;-65
2022/02/14 07:37:34;;;;;;;19.27;14.07;;;;;;;;;;4982460;28;20037;-66
2022/02/14 07:40:00;;;;;;;22.07;13.60;;;;;;;;;;4975933;28;20027;-66
2022/02/14 07:42:27;;;;;;;20.50;13.97;;;;;;;;;;4971403;28;20057;-65
2022/02/14 07:44:53;;;;;;;18.77;13.77;;;;;;;;;;4976257;28;20023;-65
2022/02/14 07:47:19;;;;;;;19.87;13.93;;;;;;;;;;4971053;28;20226;-65
2022/02/14 07:49:45;;;;;;;24.10;15.10;;;;;;;;;;4971575;28;20027;-65
2022/02/14 07:52:11;;;;;;;21.03;13.37;;;;;;;;;;4978588;28;20073;-65
2022/02/14 07:54:37;;;;;;;23.53;15.53;;;;;;;;;;4990905;28;20030;-65
2022/02/14 07:57:04;;;;;;;21.77;14.70;;;;;;;;;;4973962;28;20033;-65
2022/02/14 07:59:30;;;;;;;22.30;13.63;;;;;;;;;;4971286;28;20049;-65
2022/02/14 08:01:56;;;;;;;17.67;14.20;;;;;;;;;;4975859;28;20041;-65
2022/02/14 08:04:22;;;;;;;26.07;16.03;;;;;;;;;;4990598;28;20066;-65
2022/02/14 08:06:48;;;;;;;21.87;16.33;;;;;;;;;;4986123;28;20088;-65
2022/02/14 08:09:16;;;;;;;23.47;14.80;;;;;;;;;;4988915;28;20066;-65
2022/02/14 08:11:42;;;;;;;23.97;15.17;;;;;;;;;;4989130;28;20030;-65
2022/02/14 08:14:08;;;;;;;25.40;15.27;;;;;;;;;;4990575;28;20085;-65
2022/02/14 08:16:35;;;;;;;26.57;15.77;;;;;;;;;;4989059;28;20049;-65
2022/02/14 08:19:01;;;;;;;23.67;15.57;;;;;;;;;;4990417;28;20065;-65
2022/02/14 08:21:29;;;;;;;21.23;13.20;;;;;;;;;;4989434;28;20034;-65
2022/02/14 08:23:55;;;;;;;21.43;15.77;;;;;;;;;;4972674;28;20062;-65
2022/02/14 08:26:21;;;;;;;23.27;15.70;;;;;;;;;;5005815;28;20030;-65
2022/02/14 08:28:48;;;;;;;24.10;15.97;;;;;;;;;;5052024;28;20028;-65
2022/02/14 08:31:14;;;;;;;20.00;14.97;;;;;;;;;;5012004;28;20054;-64
2022/02/14 08:33:40;;;;;;;21.37;14.70;;;;;;;;;;4970740;28;20034;-61
2022/02/14 08:36:06;;;;;;;25.00;15.23;;;;;;;;;;4983425;28;20053;-64
2022/02/14 08:38:34;;;;;;;21.30;14.97;;;;;;;;;;4993683;28;20416;-63
2022/02/14 08:41:00;;;;;;;24.57;15.60;;;;;;;;;;4984416;28;20227;-63
2022/02/14 08:43:26;;;;;;;22.57;15.50;;;;;;;;;;4974325;28;20057;-63
2022/02/14 08:45:52;;;;;;;21.93;15.13;;;;;;;;;;4980002;28;20067;-63
2022/02/14 08:48:19;;;;;;;21.43;15.77;;;;;;;;;;4993483;28;20026;-63
2022/02/14 08:50:45;;;;;;;30.47;17.23;;;;;;;;;;4985032;28;20380;-63
2022/02/14 08:53:11;;;;;;;27.57;15.97;;;;;;;;;;4973959;28;20113;-63
2022/02/14 08:55:37;;;;;;;22.90;16.73;;;;;;;;;;4974038;28;20097;-63
2022/02/14 08:58:03;;;;;;;25.47;15.87;;;;;;;;;;4974108;28;20110;-63
2022/02/14 09:00:29;;;;;;;23.77;15.43;;;;;;;;;;4976787;28;20459;-63
2022/02/14 09:02:56;;;;;;;23.30;15.77;;;;;;;;;;4991938;28;20058;-64
2022/02/14 09:05:23;;;;;;;20.10;15.90;;;;;;;;;;4989723;28;20067;-62
2022/02/14 09:07:49;;;;;;;21.77;15.53;;;;;;;;;;4973527;28;20041;-64
2022/02/14 09:10:16;;;;;;;25.60;16.97;;;;;;;;;;4971652;28;20065;-62
2022/02/14 09:12:43;;;;;;;23.50;16.30;;;;;;;;;;4991203;28;20018;-64
2022/02/14 09:15:09;;;;;;;22.97;16.00;;;;;;;;;;4991413;28;20015;-66
2022/02/14 09:17:35;;;;;;;25.73;16.60;;;;;;;;;;4991113;28;20021;-64
2022/02/14 09:20:01;;;;;;;19.87;15.37;;;;;;;;;;4992318;28;20033;-70
2022/02/14 09:22:27;;;;;;;20.23;15.83;;;;;;;;;;4987518;28;20031;-65
2022/02/14 09:24:53;;;;;;;24.47;15.77;;;;;;;;;;4991374;28;20079;-65
2022/02/14 09:27:19;;;;;;;24.57;16.23;;;;;;;;;;4973347;28;20392;-65
2022/02/14 09:29:45;;;;;;;24.43;15.93;;;;;;;;;;4972902;28;20152;-65
2022/02/14 09:32:11;;;;;;;23.07;16.17;;;;;;;;;;4989307;28;20058;-65
2022/02/14 09:34:37;;;;;;;27.33;17.93;;;;;;;;;;4991572;28;20105;-65
2022/02/14 09:37:04;;;;;;;27.83;17.20;;;;;;;;;;4976780;28;20123;-65
2022/02/14 09:39:30;;;;;;;22.67;16.47;;;;;;;;;;4973279;28;20027;-65
2022/02/14 09:41:58;;;;;;;34.23;16.53;;;;;;;;;;4984940;28;20081;-65
2022/02/14 09:44:24;;;;;;;25.87;15.07;;;;;;;;;;4971902;28;20366;-65
2022/02/14 09:46:52;;;;;;;22.37;16.20;;;;;;;;;;4972915;28;20144;-65
2022/02/14 09:49:18;;;;;;;20.67;16.17;;;;;;;;;;4973375;28;20015;-66
2022/02/14 09:51:44;;;;;;;28.90;16.70;;;;;;;;;;4983235;28;20141;-64
2022/02/14 09:54:11;;;;;;;26.27;16.43;;;;;;;;;;4990481;28;20034;-65
2022/02/14 09:56:37;;;;;;;22.43;16.70;;;;;;;;;;4991617;28;20557;-65
2022/02/14 09:59:05;;;;;;;25.23;15.73;;;;;;;;;;4991413;28;20030;-65
2022/02/14 10:01:31;;;;;;;29.43;17.30;;;;;;;;;;4981097;28;20035;-65
2022/02/14 10:03:57;;;;;;;26.03;16.60;;;;;;;;;;4982673;28;20578;-65
2022/02/14 10:06:28;;;;;;;25.77;17.73;;;;;;;;;;4989323;28;20128;-65
2022/02/14 10:09:11;;;;;;;20.00;15.90;;;;;;;;;;4988561;28;20378;-65
2022/02/14 10:11:42;;;;;;;23.53;16.47;;;;;;;;;;4983018;28;20026;-65
2022/02/14 10:14:18;;;;;;;20.60;15.70;;;;;;;;;;4987202;28;20046;-65
2022/02/14 10:16:59;;;;;;;23.00;16.30;;;;;;;;;;4981884;28;20062;-65
2022/02/14 10:19:25;;;;;;;21.93;16.10;;;;;;;;;;4991694;28;20054;-65
2022/02/14 10:21:51;;;;;;;24.73;16.57;;;;;;;;;;4989847;28;20042;-66
2022/02/14 10:24:18;;;;;;;22.80;16.03;;;;;;;;;;4990790;28;20076;-65
2022/02/14 10:26:45;;;;;;;26.30;16.77;;;;;;;;;;4990939;28;20030;-65
2022/02/14 10:29:13;;;;;;;26.33;15.50;;;;;;;;;;4990481;28;20018;-65
2022/02/14 10:31:40;;;;;;;25.30;18.03;;;;;;;;;;4980179;28;20085;-65
2022/02/14 10:34:07;;;;;;;23.97;17.50;;;;;;;;;;4972152;28;20038;-65
2022/02/14 10:36:43;;;;;;;26.67;16.53;;;;;;;;;;4979286;28;20407;-65
2022/02/14 10:39:25;;;;;;;21.63;16.07;;;;;;;;;;4979350;28;20107;-65
2022/02/14 10:41:58;;;;;;;24.60;15.57;;;;;;;;;;4982566;28;20046;-65
2022/02/14 10:47:12;;;;;;;20.63;15.73;;;;;;;;;;4985765;28;20065;-65
2022/02/14 10:49:38;;;;;;;29.67;18.20;;;;;;;;;;4987605;28;20018;-65
2022/02/14 10:52:05;;;;;;;22.10;16.67;;;;;;;;;;4985867;28;20113;-65
2022/02/14 10:54:35;;;;;;;25.60;17.87;;;;;;;;;;4990823;28;20018;-65
2022/02/14 10:57:02;;;;;;;27.97;17.50;;;;;;;;;;4989049;28;20029;-65
2022/02/14 10:59:29;;;;;;;23.57;15.77;;;;;;;;;;4990827;28;20045;-64
2022/02/14 11:01:56;;;;;;;23.07;16.60;;;;;;;;;;4989562;28;20033;-65
2022/02/14 11:04:22;;;;;;;20.73;16.67;;;;;;;;;;4975282;28;20033;-65
2022/02/14 11:06:48;;;;;;;23.63;17.50;;;;;;;;;;4985592;28;20023;-65
2022/02/14 11:09:15;;;;;;;21.90;18.57;;;;;;;;;;4989314;28;20399;-65
2022/02/14 11:11:44;;;;;;;28.03;19.53;;;;;;;;;;4984683;28;20022;-65
2022/02/14 11:14:11;;;;;;;23.70;17.33;;;;;;;;;;4973636;28;20109;-65
2022/02/14 11:16:37;;;;;;;24.83;18.30;;;;;;;;;;4989939;28;20029;-65
2022/02/14 11:19:04;;;;;;;26.37;18.90;;;;;;;;;;4989948;28;20022;-65
2022/02/14 11:21:32;;;;;;;27.07;20.40;;;;;;;;;;4989732;28;20077;-65
2022/02/14 11:23:59;;;;;;;24.53;18.37;;;;;;;;;;4991073;28;20498;-65
2022/02/14 11:26:38;;;;;;;27.03;19.07;;;;;;;;;;4982063;28;20026;-65
2022/02/14 11:29:09;;;;;;;23.80;17.63;;;;;;;;;;4990996;28;20034;-65
2022/02/14 11:31:36;;;;;;;22.77;17.37;;;;;;;;;;4989992;28;20096;-64
2022/02/14 11:34:05;;;;;;;20.63;17.03;;;;;;;;;;4983968;28;20030;-65
2022/02/14 11:36:37;;;;;;;24.00;17.43;;;;;;;;;;4983366;28;20083;-64
2022/02/14 11:39:27;;;;;;;23.37;17.40;;;;;;;;;;4974874;28;20125;-65
2022/02/14 11:41:59;;;;;;;21.37;16.57;;;;;;;;;;4986792;28;20073;-64
2022/02/14 11:44:25;;;;;;;24.67;16.57;;;;;;;;;;4977231;28;20046;-64
2022/02/14 11:46:54;;;;;;;23.70;16.87;;;;;;;;;;4975639;28;20054;-64
2022/02/14 11:49:34;;;;;;;22.80;16.77;;;;;;;;;;4990104;28;20027;-65
2022/02/14 11:52:00;;;;;;;23.37;17.43;;;;;;;;;;4988922;28;20042;-65
2022/02/14 11:54:26;;;;;;;23.50;17.43;;;;;;;;;;4984810;28;20026;-65
2022/02/14 11:56:53;;;;;;;23.47;19.13;;;;;;;;;;4983208;28;20080;-65
2022/02/14 11:59:27;;;;;;;23.87;17.50;;;;;;;;;;4976832;28;20022;-65
2022/02/14 12:01:53;;;;;;;20.67;16.85;;;;;;;;;;4988911;28;20049;-65
2022/02/14 12:04:41;;;;;;;22.43;16.83;;;;;;;;;;4988265;28;20027;-64
2022/02/14 12:07:13;;;;;;;20.70;17.17;;;;;;;;;;4989415;28;20034;-65
2022/02/14 12:10:00;;;;;;;20.23;17.70;;;;;;;;;;4990548;28;20026;-65
2022/02/14 12:20:34;;;;;;;22.35;18.15;;;;;;;;;;4993923;28;20395;-65
2022/02/14 12:20:52;;;;;;;23.60;16.67;;;;;;;;;;4994295;28;20034;-64
2022/02/14 12:23:31;;;;;;;20.00;16.30;;;;;;;;;;4992541;28;20128;-65
2022/02/14 12:25:58;;;;;;;23.23;17.20;;;;;;;;;;4993933;28;20026;-64
2022/02/14 12:28:25;;;;;;;21.80;16.87;;;;;;;;;;4992780;28;20034;-64
2022/02/14 12:30:52;;;;;;;26.73;18.07;;;;;;;;;;4985107;28;20082;-64
2022/02/14 12:33:19;;;;;;;22.37;16.83;;;;;;;;;;4992310;28;20026;-64
2022/02/14 12:35:49;;;;;;;23.13;17.93;;;;;;;;;;4989315;28;20023;-64
2022/02/14 12:38:15;;;;;;;25.83;18.63;;;;;;;;;;4990490;28;20144;-64
2022/02/14 12:40:52;;;;;;;27.80;17.50;;;;;;;;;;4993525;28;20430;-64
2022/02/14 12:43:34;;;;;;;22.93;17.60;;;;;;;;;;4992431;28;20143;-64
2022/02/14 12:46:13;;;;;;;20.93;17.47;;;;;;;;;;4992090;28;20091;-65
2022/02/14 12:48:44;;;;;;;19.67;16.10;;;;;;;;;;4974134;28;20031;-65
2022/02/14 12:51:13;;;;;;;21.83;17.57;;;;;;;;;;4972277;28;20062;-64
2022/02/14 12:53:48;;;;;;;20.90;17.30;;;;;;;;;;4973881;28;20097;-64
2022/02/14 12:56:19;;;;;;;20.27;17.83;;;;;;;;;;4973501;28;20031;-64
2022/02/14 12:59:01;;;;;;;26.23;19.07;;;;;;;;;;4973537;28;20496;-64
2022/02/14 13:01:28;;;;;;;22.53;18.23;;;;;;;;;;4974765;28;20082;-64
2022/02/14 13:03:54;;;;;;;20.07;17.30;;;;;;;;;;4993106;28;20054;-64
2022/02/14 13:06:20;;;;;;;25.10;18.57;;;;;;;;;;4992025;28;20031;-64
2022/02/14 13:08:52;;;;;;;24.63;16.67;;;;;;;;;;4993220;28;20054;-64
2022/02/14 13:11:18;;;;;;;21.00;16.77;;;;;;;;;;4991814;28;20026;-64
2022/02/14 13:13:46;;;;;;;21.50;17.73;;;;;;;;;;4993187;28;20030;-65
2022/02/14 13:16:12;;;;;;;23.47;18.20;;;;;;;;;;4986591;28;20027;-64
2022/02/14 13:18:39;;;;;;;23.13;17.40;;;;;;;;;;4990851;28;20034;-64
2022/02/14 13:21:05;;;;;;;25.23;17.87;;;;;;;;;;4992487;28;20502;-64
2022/02/14 13:23:32;;;;;;;28.93;17.33;;;;;;;;;;4991594;28;20435;-63
2022/02/14 13:25:58;;;;;;;23.37;17.93;;;;;;;;;;4990771;28;20535;-63
2022/02/14 13:28:24;;;;;;;24.67;18.80;;;;;;;;;;4992049;28;20124;-63
2022/02/14 13:30:54;;;;;;;26.80;18.40;;;;;;;;;;4987157;28;20113;-63
2022/02/14 13:33:21;;;;;;;23.40;18.00;;;;;;;;;;4989071;28;20060;-63
2022/02/14 13:35:47;;;;;;;23.10;18.57;;;;;;;;;;4992745;28;20113;-64
2022/02/14 13:38:13;;;;;;;22.13;19.23;;;;;;;;;;4991696;28;20057;-63
2022/02/14 13:40:44;;;;;;;24.07;19.20;;;;;;;;;;4991610;28;20471;-63
2022/02/14 13:43:16;;;;;;;25.47;19.93;;;;;;;;;;4976725;28;20045;-63
2022/02/14 13:45:49;;;;;;;24.00;18.67;;;;;;;;;;4973470;28;20081;-63
2022/02/14 13:48:15;;;;;;;25.13;18.27;;;;;;;;;;4972224;28;20027;-64
2022/02/14 13:50:42;;;;;;;25.93;19.60;;;;;;;;;;4978467;28;20072;-63
2022/02/14 13:53:08;;;;;;;26.20;20.70;;;;;;;;;;4973010;28;20061;-63
2022/02/14 13:55:34;;;;;;;24.20;19.40;;;;;;;;;;4972010;28;20031;-63
2022/02/14 13:58:00;;;;;;;26.27;20.27;;;;;;;;;;4971589;28;20133;-63
2022/02/14 14:00:40;;;;;;;19.97;16.77;;;;;;;;;;4972886;28;20031;-63
2022/02/14 14:03:09;;;;;;;22.07;16.43;;;;;;;;;;4985437;28;20042;-63
2022/02/14 14:05:43;;;;;;;22.83;18.30;;;;;;;;;;4992775;28;20254;-63
2022/02/14 14:08:10;;;;;;;20.10;16.40;;;;;;;;;;4991197;28;20076;-64
2022/02/14 14:10:44;;;;;;;23.63;17.47;;;;;;;;;;4992301;28;20018;-64
2022/02/14 14:13:11;;;;;;;23.37;17.43;;;;;;;;;;4991076;28;20026;-64
2022/02/14 14:15:38;;;;;;;22.03;17.00;;;;;;;;;;4982594;28;20522;-64
2022/02/14 14:18:06;;;;;;;22.87;19.00;;;;;;;;;;4972702;28;20104;-64
2022/02/14 14:20:33;;;;;;;25.60;17.97;;;;;;;;;;4971174;28;20078;-64
2022/02/14 14:22:59;;;;;;;19.50;16.43;;;;;;;;;;4982645;28;20553;-63
2022/02/14 14:25:44;;;;;;;20.13;17.17;;;;;;;;;;4991896;28;20033;-64
2022/02/14 14:28:10;;;;;;;21.13;17.40;;;;;;;;;;4990965;28;20030;-64
2022/02/14 14:30:53;;;;;;;23.67;17.53;;;;;;;;;;4989558;28;20042;-64
2022/02/14 14:33:21;;;;;;;21.40;16.67;;;;;;;;;;4985967;28;20034;-62
2022/02/14 14:35:47;;;;;;;23.60;17.77;;;;;;;;;;4990594;28;20027;-68